Terminal Aerodrome Forecast
Issued by NWS Atlanta, GA

Home | Current Version | Previous Version | Text Only | Print | Product List | Glossary On
Versions: 1 2 3 4 5 6 7 8 9 10 11 12 13 14 15 16
000
FTUS42 KFFC 291125
TAFMCN
TAF
KMCN 291125Z 2912/3012 00000KT P6SM FEW120 SCT250
      TEMPO 2912/2913 5SM BR
     FM291400 34006KT P6SM SCT050 PROB30 2921/2924 6SM -TSRA
      BKN040CB
     FM300000 08004KT P6SM SCT100 BKN250=

USA.gov is the U.S. government's official web portal to all federal, state and local government web resources and services.